Latest Coastal Weather Observations for Walpole North

IDW60701

Issued at 2:52 am WST Wednesday 22 April 2015 (issued every 10 minutes, with the page automatically refreshed every 10 minutes)

About coastal observations | Map of coastal stations | Coastal observations for WA | Marine services | Other Formats
Station Details ID: 009998 Name: NORTH WALPOLE Lat: -34.95 Lon: 116.72 Height: 73.0 m
Data from the previous 72 hours. | See also: Recent months at Walpole North
Date/Time
WST
Temp

°C
Wind Pressure Rain
since 9am
mm
Weather Cloud Vis
km
Sea
Height
m
Swell
Dir
 
Speed
knots
Gust
knots
hPa Trend Height
m
Period
s
Dir
22/02:30am 14.3 CALM 0 0 1022.2 - 0.0 - - - - - - -
22/02:00am 14.6 CALM 0 0 1022.2 - 0.0 - - - - - - -
22/01:30am 15.1 CALM 0 0 1022.3 - 0.0 - - - - - - -
22/01:00am 15.5 CALM 0 0 1022.4 - 0.0 - - - - - - -
22/12:30am 15.5 CALM 0 0 1022.3 - 0.0 - - - - - - -
22/12:00am 15.8 CALM 0 0 1022.1 - 0.0 - - - - - - -
 
Date/Time
WST
Temp

°C
Wind Pressure Rain
since 9am
mm
Weather Cloud Vis
km
Sea
Height
m
Swell
Dir
 
Speed
knots
Gust
knots
hPa Trend Height
m
Period
s
Dir
21/11:30pm 15.7 CALM 0 0 1022.1 - 0.0 - - - - - - -
21/11:00pm 16.4 SE 1 5 1022.4 - 0.0 - - - - - - -
21/10:30pm 16.0 ESE 1 4 1022.5 - 0.0 - - - - - - -
21/10:00pm 16.3 ESE 4 5 1022.6 - 0.0 - - - - - - -
21/09:30pm 16.1 E 3 5 1022.5 - 0.0 - - - - - - -
21/09:00pm 16.3 E 4 6 1022.3 - 0.0 - - - - - - -
21/08:30pm 16.3 E 4 6 1022.1 - 0.0 - - - - - - -
21/08:00pm 16.7 ESE 4 6 1022.0 - 0.0 - - - - - - -
21/07:30pm 16.6 SE 4 5 1021.9 - 0.0 - - - - - - -
21/07:00pm 17.3 S 2 7 1021.7 - 0.0 - - - - - - -
21/06:30pm 17.5 S 2 6 1021.4 - 0.0 - - - - - - -
21/06:00pm 18.0 S 2 5 1021.1 - 0.0 - - - - - - -
21/05:30pm 18.7 SSE 2 4 1021.0 - 0.0 - - - - - - -
21/05:00pm 19.2 SSE 1 5 1020.9 - 0.0 - - - - - - -
21/04:30pm 19.6 S 1 5 1020.7 - 0.0 - - - - - - -
21/04:00pm 20.0 SSE 4 7 1020.6 - 0.0 - - - - - - -
21/03:30pm 20.2 CALM 0 3 1020.5 - 0.0 - - - - - - -
21/03:00pm 20.1 SSW 5 9 1020.6 - 0.0 - - - - - - -
21/02:30pm 21.3 SW 7 11 1020.5 - 0.0 - - - - - - -
21/02:00pm 23.3 SW 5 7 1020.1 - 0.0 - - - - - - -
21/01:30pm 24.4 WSW 6 8 1020.2 - 0.0 - - - - - - -
21/01:00pm 24.3 W 5 8 1020.5 - 0.0 - - - - - - -
21/12:30pm 23.2 NW 5 9 1020.9 - 0.0 - - - - - - -
21/12:00pm 23.0 WNW 5 9 1021.4 - 0.0 - - - - - - -
21/11:30am 21.8 WNW 7 10 1021.8 - 0.0 - - - - - - -
21/11:00am 22.3 NW 7 9 1022.0 - 0.0 - - - - - - -
21/10:30am 21.8 NW 6 9 1022.2 - 0.0 - - - - - - -
21/10:00am 20.5 NNW 7 10 1022.3 - 0.0 - - - - - - -
21/09:30am 19.6 NNW 5 7 1022.6 - 0.0 - - - - - - -
21/09:00am 19.9 CALM 0 0 1022.7 - 0.0 - - - - - - -
21/08:30am 19.3 NNE 3 9 1022.8 - 0.0 - - - - - - -
21/08:00am 17.9 ENE 3 7 1022.7 - 0.0 - - - - - - -
21/07:30am 16.2 ENE 5 6 1022.5 - 0.0 - - - - - - -
21/07:00am 15.0 ENE 5 7 1022.3 - 0.0 - - - - - - -
21/06:30am 14.6 E 5 7 1022.2 - 0.0 - - - - - - -
21/06:00am 15.0 ENE 5 6 1022.3 - 0.0 - - - - - - -
21/05:30am 15.2 ENE 5 6 1022.3 - 0.0 - - - - - - -
21/05:00am 15.3 NE 4 7 1022.3 - 0.0 - - - - - - -
21/04:30am 15.1 NNE 3 5 1022.0 - 0.0 - - - - - - -
21/04:00am 15.2 NE 6 9 1021.6 - 0.0 - - - - - - -
21/03:30am 14.8 NNE 4 7 1021.8 - 0.0 - - - - - - -
21/03:00am 14.7 NNE 1 5 1021.9 - 0.0 - - - - - - -
21/02:30am 13.5 CALM 0 0 1022.0 - 0.0 - - - - - - -
21/02:00am 13.8 CALM 0 0 1022.0 - 0.0 - - - - - - -
21/01:30am 14.1 CALM 0 0 1022.2 - 0.0 - - - - - - -
21/01:00am 15.7 NNE 1 4 1022.3 - 0.0 - - - - - - -
21/12:30am 18.2 NNE 4 8 1022.2 - 0.0 - - - - - - -
21/12:00am 18.4 NNE 4 9 1022.2 - 0.0 - - - - - - -
 
Date/Time
WST
Temp

°C
Wind Pressure Rain
since 9am
mm
Weather Cloud Vis
km
Sea
Height
m
Swell
Dir
 
Speed
knots
Gust
knots
hPa Trend Height
m
Period
s
Dir
20/11:30pm 19.2 NNE 7 10 1022.2 - 0.0 - - - - - - -
20/11:00pm 19.8 NNE 9 14 1022.5 - 0.0 - - - - - - -
20/10:30pm 19.4 NNE 8 12 1022.8 - 0.0 - - - - - - -
20/10:00pm 18.5 NNE 6 8 1023.2 - 0.0 - - - - - - -
20/09:30pm 18.7 NNE 5 8 1023.4 - 0.0 - - - - - - -
20/09:00pm 16.2 NE 1 4 1023.5 - 0.0 - - - - - - -
20/08:30pm 16.4 SSW 1 6 1023.4 - 0.0 - - - - - - -
20/08:00pm 16.8 CALM 0 0 1023.4 - 0.0 - - - - - - -
20/07:30pm 17.0 CALM 0 0 1023.5 - 0.0 - - - - - - -
20/07:00pm 18.1 CALM 0 0 1023.5 - 0.0 - - - - - - -
20/06:30pm 18.5 CALM 0 0 1023.4 - 0.0 - - - - - - -
20/06:00pm 19.3 CALM 0 0 1023.1 - 0.0 - - - - - - -
20/05:30pm 20.6 SSW 1 4 1022.9 - 0.0 - - - - - - -
20/05:00pm 23.4 CALM 0 0 1022.8 - 0.0 - - - - - - -
20/04:30pm 25.4 NNE 2 5 1022.7 - 0.0 - - - - - - -
20/04:00pm 25.7 NNW 3 6 1022.8 - 0.0 - - - - - - -
20/03:30pm 25.6 N 4 9 1022.8 - 0.0 - - - - - - -
20/03:00pm 25.6 N 5 8 1023.0 - 0.0 - - - - - - -
20/02:30pm 25.3 NNW 7 9 1023.1 - 0.0 - - - - - - -
20/02:00pm 25.1 N 5 8 1023.4 - 0.0 - - - - - - -
20/01:30pm 24.8 NNE 5 8 1023.7 - 0.0 - - - - - - -
20/01:00pm 24.1 NNE 5 10 1024.2 - 0.0 - - - - - - -
20/12:30pm 24.0 N 6 10 1024.7 - 0.0 - - - - - - -
20/12:00pm 23.3 NNE 6 9 1025.2 - 0.0 - - - - - - -
20/11:30am 23.0 N 6 11 1025.6 - 0.0 - - - - - - -
20/11:00am 22.3 NNE 5 7 1026.0 - 0.0 - - - - - - -
20/10:30am 20.7 N 7 13 1026.4 - 0.0 - - - - - - -
20/10:00am 20.6 N 6 11 1026.8 - 0.0 - - - - - - -
20/09:30am 19.5 N 5 11 1027.1 - 0.0 - - - - - - -
20/09:00am 18.8 NNW 5 8 1027.3 - 0.0 - - - - - - -
20/08:30am 18.7 N 3 6 1027.2 - 0.0 - - - - - - -
20/08:00am 17.8 NNE 4 8 1027.0 - 0.0 - - - - - - -
20/07:30am 16.8 NNE 6 11 1026.7 - 0.0 - - - - - - -
20/07:00am 16.2 NNE 6 10 1026.5 - 0.0 - - - - - - -
20/06:30am 15.5 NE 5 8 1026.4 - 0.0 - - - - - - -
20/06:00am 16.4 NNE 6 11 1026.3 - 0.0 - - - - - - -
20/05:30am 15.9 NE 7 10 1026.2 - 0.0 - - - - - - -
20/05:00am 16.2 NNE 6 11 1026.1 - 0.0 - - - - - - -
20/04:30am 15.1 NE 6 9 1026.2 - 0.0 - - - - - - -
20/04:00am 15.6 NNE 7 9 1025.9 - 0.0 - - - - - - -
20/03:30am 16.3 NNE 6 9 1026.1 - 0.0 - - - - - - -
20/03:00am 16.4 NNE 7 10 1026.3 - 0.0 - - - - - - -
20/02:30am 16.7 NE 7 9 1026.6 - 0.0 - - - - - - -
20/02:00am 17.1 NNE 8 11 1026.7 - 0.0 - - - - - - -
20/01:30am 16.8 NNE 9 13 1026.8 - 0.0 - - - - - - -
20/01:00am 16.3 NNE 7 11 1026.8 - 0.0 - - - - - - -
20/12:30am 15.1 NNE 5 7 1026.8 - 0.0 - - - - - - -
20/12:00am 15.9 NE 5 7 1026.9 - 0.0 - - - - - - -
 
Date/Time
WST
Temp

°C
Wind Pressure Rain
since 9am
mm
Weather Cloud Vis
km
Sea
Height
m
Swell
Dir
 
Speed
knots
Gust
knots
hPa Trend Height
m
Period
s
Dir
19/11:30pm 16.0 NE 6 8 1027.0 - 0.0 - - - - - - -
19/11:00pm 16.1 NE 6 8 1027.1 - 0.0 - - - - - - -
19/10:30pm 17.2 NE 6 9 1027.3 - 0.0 - - - - - - -
19/10:00pm 17.2 ENE 7 8 1027.3 - 0.0 - - - - - - -
19/09:30pm 17.4 NE 6 9 1027.2 - 0.0 - - - - - - -
19/09:00pm 16.5 CALM 0 0 1027.2 - 0.0 - - - - - - -
19/08:30pm 16.6 CALM 0 0 1027.1 - 0.0 - - - - - - -
19/08:00pm 17.7 CALM 0 0 1027.0 - 0.0 - - - - - - -
19/07:30pm 17.8 CALM 0 0 1026.9 - 0.0 - - - - - - -
19/07:00pm 17.8 CALM 0 0 1026.7 - 0.0 - - - - - - -
19/06:30pm 18.8 CALM 0 0 1026.5 - 0.0 - - - - - - -
19/06:00pm 19.5 CALM 0 0 1026.2 - 0.0 - - - - - - -
19/05:30pm 20.7 CALM 0 0 1025.9 - 0.0 - - - - - - -
19/05:00pm 22.8 CALM 0 0 1025.6 - 0.0 - - - - - - -
19/04:30pm 24.9 CALM 0 0 1025.5 - 0.0 - - - - - - -
19/04:00pm 25.5 N 3 6 1025.3 - 0.0 - - - - - - -
19/03:30pm 25.0 N 5 7 1025.4 - 0.0 - - - - - - -
19/03:00pm 25.1 NNE 3 6 1025.4 - 0.0 - - - - - - -
19/02:30pm 24.9 NNW 5 9 1025.2 - 0.0 - - - - - - -
19/02:00pm 25.0 N 4 7 1025.3 - 0.0 - - - - - - -
19/01:30pm 24.0 N 6 9 1025.4 - 0.0 - - - - - - -
19/01:00pm 23.8 N 5 8 1025.7 - 0.0 - - - - - - -
19/12:30pm 22.9 N 5 9 1026.0 - 0.0 - - - - - - -
19/12:00pm 22.3 NNW 8 13 1026.7 - 0.0 - - - - - - -
19/11:30am 21.5 N 8 14 1026.8 - 0.0 - - - - - - -
19/11:00am 20.6 N 8 14 1027.1 - 0.0 - - - - - - -
19/10:30am 19.5 N 5 10 1027.2 - 0.0 - - - - - - -
19/10:00am 18.7 NNE 5 11 1027.2 - 0.0 - - - - - - -
19/09:30am 17.5 N 3 8 1027.4 - 0.0 - - - - - - -
19/09:00am 16.3 NNE 5 10 1027.6 - 0.0 - - - - - - -
19/08:30am 14.7 NE 10 15 1027.6 - 0.0 - - - - - - -
19/08:00am 13.5 NNE 10 17 1027.2 - 0.0 - - - - - - -
19/07:30am 12.9 NE 10 16 1026.9 - 0.0 - - - - - - -
19/07:00am 12.5 NE 12 19 1026.6 - 0.0 - - - - - - -
19/06:30am 12.3 NNE 11 17 1026.5 - 0.0 - - - - - - -
19/06:00am 12.4 NE 12 17 1026.5 - 0.0 - - - - - - -
19/05:30am 12.7 NE 14 21 1026.4 - 0.0 - - - - - - -
19/05:00am 12.8 NE 13 21 1026.3 - 0.0 - - - - - - -
19/04:30am 12.8 NE 14 22 1026.2 - 0.0 - - - - - - -
19/04:00am 12.9 NE 11 17 1026.1 - 0.0 - - - - - - -
19/03:30am 12.8 NE 11 18 1026.3 - 0.0 - - - - - - -
19/03:00am 12.9 NE 10 16 1026.2 - 0.0 - - - - - - -

Other Formats:

Comma delimited format used in spreadsheet applications
http://www.bom.gov.au/fwo/IDW60701/IDW60701.95647.axf

JavaScript Object Notation format (JSON) in row-major order
http://www.bom.gov.au/fwo/IDW60701/IDW60701.95647.json